createdAt,value
2017-01-14T00:00:21.923Z,931.29
2017-01-14T00:00:49.646Z,931.31
2017-01-14T00:01:17.441Z,931.33
2017-01-14T00:01:45.139Z,931.32
2017-01-14T00:02:12.833Z,931.37
2017-01-14T00:02:40.648Z,931.31
2017-01-14T00:03:08.347Z,931.34
2017-01-14T00:03:36.099Z,931.35
2017-01-14T00:04:03.786Z,931.34
2017-01-14T00:04:31.512Z,931.31
2017-01-14T00:04:59.232Z,931.32
2017-01-14T00:05:26.914Z,931.33
2017-01-14T00:05:54.641Z,931.33
2017-01-14T00:06:22.339Z,931.33
2017-01-14T00:06:50.046Z,931.3
2017-01-14T00:07:17.717Z,931.33
2017-01-14T00:07:45.417Z,931.32
2017-01-14T00:08:13.180Z,931.33
2017-01-14T00:08:40.898Z,931.36
2017-01-14T00:09:08.606Z,931.37
2017-01-14T00:09:36.288Z,931.37
2017-01-14T00:10:04.106Z,931.38
2017-01-14T00:10:31.791Z,931.38
2017-01-14T00:10:59.497Z,931.41
2017-01-14T00:11:27.209Z,931.38
2017-01-14T00:11:54.901Z,931.4
2017-01-14T00:12:22.814Z,931.42
2017-01-14T00:12:50.497Z,931.44
2017-01-14T00:13:18.288Z,931.47
2017-01-14T00:13:46.001Z,931.47
2017-01-14T00:14:13.717Z,931.43
2017-01-14T00:14:41.403Z,931.48
2017-01-14T00:15:09.101Z,931.49
2017-01-14T00:15:36.818Z,931.49
2017-01-14T00:16:04.540Z,931.53
2017-01-14T00:16:32.233Z,931.51
2017-01-14T00:17:00.061Z,931.49
2017-01-14T00:17:27.750Z,931.53
2017-01-14T00:17:55.456Z,931.49
2017-01-14T00:18:23.249Z,931.53
2017-01-14T00:18:51.023Z,931.56
2017-01-14T00:19:18.854Z,931.58
2017-01-14T00:19:46.544Z,931.51
2017-01-14T00:20:14.252Z,931.55
2017-01-14T00:20:41.982Z,931.57
2017-01-14T00:21:09.686Z,931.56
2017-01-14T00:21:37.392Z,931.53
2017-01-14T00:22:05.107Z,931.57
2017-01-14T00:22:32.837Z,931.58
2017-01-14T00:23:00.545Z,931.55
2017-01-14T00:23:28.256Z,931.54
2017-01-14T00:23:55.932Z,931.53
2017-01-14T00:24:23.668Z,931.57
2017-01-14T00:24:51.365Z,931.54
2017-01-14T00:25:19.056Z,931.58
2017-01-14T00:25:46.739Z,931.61
2017-01-14T00:26:14.408Z,931.61
2017-01-14T00:26:42.106Z,931.66
2017-01-14T00:27:09.832Z,931.64
2017-01-14T00:27:37.572Z,931.59
2017-01-14T00:28:05.298Z,931.67
2017-01-14T00:28:32.993Z,931.7
2017-01-14T00:29:00.703Z,931.7
2017-01-14T00:29:28.400Z,931.74
2017-01-14T00:29:56.083Z,931.73
2017-01-14T00:30:23.882Z,931.7
2017-01-14T00:30:51.660Z,931.77
2017-01-14T00:31:19.358Z,931.75
2017-01-14T00:31:47.179Z,931.74
2017-01-14T00:32:14.866Z,931.79
2017-01-14T00:32:42.556Z,931.77
2017-01-14T00:33:10.274Z,931.76
2017-01-14T00:33:37.957Z,931.74
2017-01-14T00:34:05.679Z,931.77
2017-01-14T00:34:33.379Z,931.78
2017-01-14T00:35:01.099Z,931.75
2017-01-14T00:35:29.120Z,931.75
2017-01-14T00:35:56.961Z,931.77
2017-01-14T00:36:24.782Z,931.75
2017-01-14T00:36:52.481Z,931.77
2017-01-14T00:37:20.300Z,931.7
2017-01-14T00:37:48.009Z,931.76
2017-01-14T00:38:15.701Z,931.72
2017-01-14T00:38:43.413Z,931.74
2017-01-14T00:39:11.130Z,931.76
2017-01-14T00:39:38.863Z,931.75
2017-01-14T00:40:06.600Z,931.71
2017-01-14T00:40:34.294Z,931.78
2017-01-14T00:41:02.015Z,931.78
2017-01-14T00:41:29.702Z,931.78
2017-01-14T00:41:57.423Z,931.75
2017-01-14T00:42:25.129Z,931.74
2017-01-14T00:42:52.838Z,931.8
2017-01-14T00:43:20.644Z,931.78
2017-01-14T00:43:48.338Z,931.76
2017-01-14T00:44:16.049Z,931.73
2017-01-14T00:44:43.782Z,931.78
2017-01-14T00:45:11.595Z,931.78
2017-01-14T00:45:39.286Z,931.74
2017-01-14T00:46:07.014Z,931.74
2017-01-14T00:46:34.731Z,931.74
2017-01-14T00:47:02.443Z,931.72
2017-01-14T00:47:30.159Z,931.74
2017-01-14T00:47:57.822Z,931.76
2017-01-14T00:48:25.534Z,931.74
2017-01-14T00:48:53.213Z,931.76
2017-01-14T00:49:20.928Z,931.75
2017-01-14T00:49:48.636Z,931.77
2017-01-14T00:50:16.335Z,931.75
2017-01-14T00:50:44.068Z,931.78
2017-01-14T00:51:11.752Z,931.8
2017-01-14T00:51:39.435Z,931.8
2017-01-14T00:52:07.149Z,931.74
2017-01-14T00:52:34.857Z,931.82
2017-01-14T00:53:02.573Z,931.83
2017-01-14T00:53:30.263Z,931.81
2017-01-14T00:53:57.975Z,931.85
2017-01-14T00:54:25.645Z,931.84
2017-01-14T00:54:53.344Z,931.82
2017-01-14T00:55:21.051Z,931.86
2017-01-14T00:55:48.755Z,931.83
2017-01-14T00:56:16.447Z,931.86
2017-01-14T00:56:44.161Z,931.87
2017-01-14T00:57:11.866Z,931.88
2017-01-14T00:57:39.569Z,931.88
2017-01-14T00:58:07.277Z,931.9
2017-01-14T00:58:35.050Z,931.92
2017-01-14T00:59:02.753Z,931.93
2017-01-14T00:59:30.425Z,931.96
2017-01-14T00:59:58.148Z,931.99
2017-01-14T01:00:25.810Z,932
2017-01-14T01:00:53.509Z,932.04
2017-01-14T01:01:21.250Z,932.06
2017-01-14T01:01:48.933Z,932.09
2017-01-14T01:02:16.726Z,932.1
2017-01-14T01:02:44.517Z,932.06
2017-01-14T01:03:12.217Z,932.11
2017-01-14T01:03:39.905Z,932.09
2017-01-14T01:04:07.702Z,932.18
2017-01-14T01:04:35.431Z,932.12
2017-01-14T01:05:03.151Z,932.17
2017-01-14T01:05:30.844Z,932.14
2017-01-14T01:05:58.558Z,932.19
2017-01-14T01:06:26.242Z,932.22
2017-01-14T01:06:53.983Z,932.23
2017-01-14T01:07:21.662Z,932.2
2017-01-14T01:07:49.383Z,932.22
2017-01-14T01:08:17.076Z,932.19
2017-01-14T01:08:44.789Z,932.18
2017-01-14T01:09:12.533Z,932.2
2017-01-14T01:09:40.227Z,932.17
2017-01-14T01:10:08.013Z,932.18
2017-01-14T01:10:35.827Z,932.18
2017-01-14T01:11:03.500Z,932.18
2017-01-14T01:11:31.214Z,932.2
2017-01-14T01:11:58.930Z,932.19
2017-01-14T01:12:26.728Z,932.2
2017-01-14T01:12:54.529Z,932.19
2017-01-14T01:13:22.226Z,932.18
2017-01-14T01:13:49.931Z,932.2
2017-01-14T01:14:17.636Z,932.19
2017-01-14T01:14:45.331Z,932.2
2017-01-14T01:15:13.112Z,932.2
2017-01-14T01:15:40.924Z,932.19
2017-01-14T01:16:08.651Z,932.19
2017-01-14T01:16:36.453Z,932.19
2017-01-14T01:17:04.137Z,932.17
2017-01-14T01:17:31.884Z,932.2
2017-01-14T01:17:59.585Z,932.18
2017-01-14T01:18:27.281Z,932.2
2017-01-14T01:18:54.982Z,932.19
2017-01-14T01:19:22.674Z,932.17
2017-01-14T01:19:50.408Z,932.18
2017-01-14T01:20:18.101Z,932.2
2017-01-14T01:20:45.910Z,932.18
2017-01-14T01:21:13.681Z,932.15
2017-01-14T01:21:41.365Z,932.18
2017-01-14T01:22:09.046Z,932.16
2017-01-14T01:22:36.734Z,932.16
2017-01-14T01:23:04.471Z,932.14
2017-01-14T01:23:32.274Z,932.12
2017-01-14T01:23:59.959Z,932.1
2017-01-14T01:24:27.755Z,932.12
2017-01-14T01:24:55.544Z,932.1
2017-01-14T01:25:23.230Z,932.1
2017-01-14T01:25:50.937Z,932.1
2017-01-14T01:26:18.742Z,932.07
2017-01-14T01:26:46.431Z,932.08
2017-01-14T01:27:14.137Z,932.06
2017-01-14T01:27:41.842Z,932.08
2017-01-14T01:28:09.568Z,932.05
2017-01-14T01:28:37.353Z,932.08
2017-01-14T01:29:05.023Z,932.08
2017-01-14T01:29:32.748Z,932.06
2017-01-14T01:30:00.434Z,932.05
2017-01-14T01:30:28.175Z,932.09
2017-01-14T01:30:55.999Z,932.07
2017-01-14T01:31:23.724Z,932.08
2017-01-14T01:31:51.427Z,932.09
2017-01-14T01:32:19.371Z,932.04
2017-01-14T01:32:47.180Z,932.07
2017-01-14T01:33:14.889Z,932.06
2017-01-14T01:33:42.597Z,932.08
2017-01-14T01:34:10.320Z,932.09
2017-01-14T01:34:38.022Z,932.07
2017-01-14T01:35:05.828Z,932.06
2017-01-14T01:35:33.522Z,932.03
2017-01-14T01:36:01.247Z,932.01
2017-01-14T01:36:28.960Z,932.04
2017-01-14T01:36:56.637Z,932.02
2017-01-14T01:37:24.351Z,932.04
2017-01-14T01:37:52.063Z,932.05
2017-01-14T01:38:19.793Z,932.04
2017-01-14T01:38:47.510Z,932.07
2017-01-14T01:39:15.217Z,932.06
2017-01-14T01:39:42.938Z,932.01
2017-01-14T01:40:10.656Z,932.04
2017-01-14T01:40:38.342Z,932.02
2017-01-14T01:41:06.238Z,932.03
2017-01-14T01:41:33.976Z,932.06
2017-01-14T01:42:01.678Z,932.03
2017-01-14T01:42:29.360Z,932.03
2017-01-14T01:42:57.046Z,931.99
2017-01-14T01:43:24.983Z,932.01
2017-01-14T01:43:52.671Z,932.05
2017-01-14T01:44:20.381Z,932.03
2017-01-14T01:44:48.105Z,932
2017-01-14T01:45:15.809Z,932.02
2017-01-14T01:45:43.593Z,931.97
2017-01-14T01:46:11.284Z,931.98
2017-01-14T01:46:38.965Z,932
2017-01-14T01:47:06.657Z,931.99
2017-01-14T01:47:34.377Z,931.96
2017-01-14T01:48:02.053Z,931.97
2017-01-14T01:48:29.780Z,931.98
2017-01-14T01:48:57.487Z,931.95
2017-01-14T01:49:25.181Z,931.96
2017-01-14T01:49:52.854Z,931.99
2017-01-14T01:50:20.575Z,931.96
2017-01-14T01:50:48.490Z,931.97
2017-01-14T01:51:16.174Z,931.97
2017-01-14T01:51:43.858Z,931.99
2017-01-14T01:52:11.772Z,932
2017-01-14T01:52:39.445Z,931.95
2017-01-14T01:53:07.159Z,931.94
2017-01-14T01:53:34.846Z,931.95
2017-01-14T01:54:02.528Z,931.97
2017-01-14T01:54:30.212Z,931.98
2017-01-14T01:54:57.911Z,931.96
2017-01-14T01:55:25.654Z,931.92
2017-01-14T01:55:53.397Z,931.95
2017-01-14T01:56:21.082Z,931.92
2017-01-14T01:56:48.868Z,931.9
2017-01-14T01:57:16.579Z,931.93
2017-01-14T01:57:44.288Z,931.93
2017-01-14T01:58:11.969Z,931.9
2017-01-14T01:58:39.699Z,931.93
2017-01-14T01:59:07.460Z,931.91
2017-01-14T01:59:35.171Z,931.93
2017-01-14T02:00:02.883Z,931.92
2017-01-14T02:00:30.613Z,931.92
2017-01-14T02:00:58.319Z,931.93
2017-01-14T02:01:26.093Z,931.9
2017-01-14T02:01:53.919Z,931.97
2017-01-14T02:02:21.819Z,931.94
2017-01-14T02:02:49.492Z,931.91
2017-01-14T02:03:17.204Z,931.91
2017-01-14T02:03:44.936Z,931.92
2017-01-14T02:04:12.734Z,931.91
2017-01-14T02:04:40.439Z,931.95
2017-01-14T02:05:08.253Z,931.92
2017-01-14T02:05:35.955Z,931.95
2017-01-14T02:06:03.651Z,931.87
2017-01-14T02:06:31.357Z,931.92
2017-01-14T02:06:59.045Z,931.91
2017-01-14T02:07:26.850Z,931.88
2017-01-14T02:07:54.534Z,931.88
2017-01-14T02:08:22.241Z,931.94
2017-01-14T02:08:49.948Z,931.96
2017-01-14T02:09:17.670Z,931.96
2017-01-14T02:09:45.356Z,931.94
2017-01-14T02:10:13.059Z,931.91
2017-01-14T02:10:40.754Z,931.92
2017-01-14T02:11:08.448Z,931.96
2017-01-14T02:11:36.127Z,931.94
2017-01-14T02:12:03.799Z,931.91
2017-01-14T02:12:31.479Z,931.9
2017-01-14T02:12:59.192Z,931.93
2017-01-14T02:13:26.901Z,931.87
2017-01-14T02:13:54.582Z,931.91
2017-01-14T02:14:22.365Z,931.93
2017-01-14T02:14:50.047Z,931.91
2017-01-14T02:15:17.753Z,931.88
2017-01-14T02:15:45.547Z,931.9
2017-01-14T02:16:13.266Z,931.88
2017-01-14T02:16:40.969Z,931.84
2017-01-14T02:17:08.681Z,931.83
2017-01-14T02:17:36.378Z,931.87
2017-01-14T02:18:04.075Z,931.86
2017-01-14T02:18:31.762Z,931.81
2017-01-14T02:18:59.472Z,931.84
2017-01-14T02:19:27.166Z,931.85
2017-01-14T02:19:54.857Z,931.85
2017-01-14T02:20:22.530Z,931.82
2017-01-14T02:20:50.239Z,931.82
2017-01-14T02:21:18.051Z,931.84
2017-01-14T02:21:45.756Z,931.85
2017-01-14T02:22:13.560Z,931.84
2017-01-14T02:22:41.385Z,931.86
2017-01-14T02:23:09.089Z,931.86
2017-01-14T02:23:36.803Z,931.88
2017-01-14T02:24:04.544Z,931.89
2017-01-14T02:24:32.259Z,931.89
2017-01-14T02:24:59.993Z,931.83
2017-01-14T02:25:27.676Z,931.91
2017-01-14T02:25:55.366Z,931.88
2017-01-14T02:26:23.140Z,931.91
2017-01-14T02:26:50.849Z,931.89
2017-01-14T02:27:18.637Z,931.89
2017-01-14T02:27:46.314Z,931.9
2017-01-14T02:28:13.996Z,931.91
2017-01-14T02:28:41.784Z,931.91
2017-01-14T02:29:09.473Z,931.91
2017-01-14T02:29:37.145Z,931.93
2017-01-14T02:30:04.828Z,931.92
2017-01-14T02:30:32.538Z,931.95
2017-01-14T02:31:00.271Z,931.92
2017-01-14T02:31:27.980Z,931.96
2017-01-14T02:31:55.680Z,931.94
2017-01-14T02:32:23.346Z,931.93
2017-01-14T02:32:51.147Z,931.94
2017-01-14T02:33:18.956Z,931.92
2017-01-14T02:33:46.744Z,931.94
2017-01-14T02:34:14.446Z,931.92
2017-01-14T02:34:42.324Z,931.94
2017-01-14T02:35:10.022Z,931.93
2017-01-14T02:35:37.717Z,931.91
2017-01-14T02:36:05.434Z,931.93
2017-01-14T02:36:33.147Z,931.89
2017-01-14T02:37:00.864Z,931.9
2017-01-14T02:37:28.554Z,931.89
2017-01-14T02:37:56.246Z,931.92
2017-01-14T02:38:24.030Z,931.86
2017-01-14T02:38:51.807Z,931.9
2017-01-14T02:39:19.517Z,931.85
2017-01-14T02:39:47.301Z,931.86
2017-01-14T02:40:15.028Z,931.84
2017-01-14T02:40:42.749Z,931.87
2017-01-14T02:41:10.443Z,931.85
2017-01-14T02:41:38.262Z,931.86
2017-01-14T02:42:05.966Z,931.86
2017-01-14T02:42:33.674Z,931.84
2017-01-14T02:43:01.481Z,931.85
2017-01-14T02:43:29.172Z,931.82
2017-01-14T02:43:56.859Z,931.82
2017-01-14T02:44:24.581Z,931.82
2017-01-14T02:44:52.303Z,931.81
2017-01-14T02:45:19.987Z,931.78
2017-01-14T02:45:47.705Z,931.77
2017-01-14T02:46:15.400Z,931.75
2017-01-14T02:46:43.060Z,931.73
2017-01-14T02:47:10.726Z,931.75
2017-01-14T02:47:38.437Z,931.75
2017-01-14T02:48:06.148Z,931.78
2017-01-14T02:48:33.934Z,931.75
2017-01-14T02:49:01.647Z,931.73
2017-01-14T02:49:29.336Z,931.74
2017-01-14T02:49:57.015Z,931.72
2017-01-14T02:50:25.363Z,931.75
2017-01-14T02:50:54.004Z,931.74
2017-01-14T02:51:22.112Z,931.73
2017-01-14T02:51:49.798Z,931.78
2017-01-14T02:52:17.669Z,931.72
2017-01-14T02:52:45.893Z,931.73
2017-01-14T02:53:14.537Z,931.74
2017-01-14T02:53:42.389Z,931.74
2017-01-14T02:54:10.090Z,931.74
2017-01-14T02:54:37.800Z,931.73
2017-01-14T02:55:05.596Z,931.71
2017-01-14T02:55:33.310Z,931.73
2017-01-14T02:56:01.026Z,931.71
2017-01-14T02:56:28.818Z,931.71
2017-01-14T02:56:56.492Z,931.69
2017-01-14T02:57:24.332Z,931.66
2017-01-14T02:57:52.041Z,931.63
2017-01-14T02:58:19.760Z,931.67
2017-01-14T02:58:47.620Z,931.64
2017-01-14T02:59:15.327Z,931.65
2017-01-14T02:59:43.004Z,931.64
2017-01-14T03:00:10.794Z,931.59
2017-01-14T03:00:38.518Z,931.62
2017-01-14T03:01:06.175Z,931.61
2017-01-14T03:01:33.909Z,931.56
2017-01-14T03:02:01.608Z,931.61
2017-01-14T03:02:29.343Z,931.56
2017-01-14T03:02:57.050Z,931.55
2017-01-14T03:03:24.755Z,931.52
2017-01-14T03:03:52.466Z,931.52
2017-01-14T03:04:20.155Z,931.51
2017-01-14T03:04:47.841Z,931.52
2017-01-14T03:05:15.621Z,931.46
2017-01-14T03:05:43.373Z,931.48
2017-01-14T03:06:11.136Z,931.47
2017-01-14T03:06:38.800Z,931.45
2017-01-14T03:07:06.759Z,931.47
2017-01-14T03:07:34.491Z,931.47
2017-01-14T03:08:02.224Z,931.43
2017-01-14T03:08:29.963Z,931.5
2017-01-14T03:08:57.669Z,931.49
2017-01-14T03:09:25.447Z,931.46
2017-01-14T03:09:53.143Z,931.51
2017-01-14T03:10:20.947Z,931.5
2017-01-14T03:10:48.695Z,931.49
2017-01-14T03:11:16.392Z,931.5
2017-01-14T03:11:44.111Z,931.45
2017-01-14T03:12:11.812Z,931.45
2017-01-14T03:12:39.522Z,931.48
2017-01-14T03:13:07.328Z,931.46
2017-01-14T03:13:35.046Z,931.44
2017-01-14T03:14:02.737Z,931.48
2017-01-14T03:14:30.534Z,931.45
2017-01-14T03:14:58.259Z,931.43
2017-01-14T03:15:25.963Z,931.43
2017-01-14T03:15:53.649Z,931.4
2017-01-14T03:16:21.433Z,931.42
2017-01-14T03:16:49.150Z,931.4
2017-01-14T03:17:16.850Z,931.45
2017-01-14T03:17:44.675Z,931.38
2017-01-14T03:18:12.370Z,931.43
2017-01-14T03:18:40.098Z,931.44
2017-01-14T03:19:07.828Z,931.42
2017-01-14T03:19:35.526Z,931.42
2017-01-14T03:20:03.304Z,931.42
2017-01-14T03:20:31.005Z,931.42
2017-01-14T03:20:58.707Z,931.46
2017-01-14T03:21:26.416Z,931.44
2017-01-14T03:21:54.135Z,931.43
2017-01-14T03:22:21.821Z,931.46
2017-01-14T03:22:49.574Z,931.45
2017-01-14T03:23:17.267Z,931.43
2017-01-14T03:23:44.969Z,931.47
2017-01-14T03:24:12.663Z,931.44
2017-01-14T03:24:40.329Z,931.46
2017-01-14T03:25:08.031Z,931.45
2017-01-14T03:25:35.763Z,931.45
2017-01-14T03:26:03.492Z,931.45
2017-01-14T03:26:31.230Z,931.44
2017-01-14T03:26:59.031Z,931.45
2017-01-14T03:27:26.877Z,931.45
2017-01-14T03:27:54.608Z,931.48
2017-01-14T03:28:22.302Z,931.46
2017-01-14T03:28:50.014Z,931.43
2017-01-14T03:29:17.843Z,931.41
2017-01-14T03:29:45.538Z,931.45
2017-01-14T03:30:13.237Z,931.39
2017-01-14T03:30:40.927Z,931.42
2017-01-14T03:31:08.605Z,931.4
2017-01-14T03:31:36.311Z,931.41
2017-01-14T03:32:04.018Z,931.4
2017-01-14T03:32:31.710Z,931.35
2017-01-14T03:32:59.522Z,931.39
2017-01-14T03:33:27.208Z,931.38
2017-01-14T03:33:54.903Z,931.4
2017-01-14T03:34:22.595Z,931.42
2017-01-14T03:34:50.280Z,931.44
2017-01-14T03:35:17.966Z,931.46
2017-01-14T03:35:45.679Z,931.45
2017-01-14T03:36:13.399Z,931.49
2017-01-14T03:36:41.090Z,931.47
2017-01-14T03:37:08.796Z,931.47
2017-01-14T03:37:36.463Z,931.47
2017-01-14T03:38:04.185Z,931.48
2017-01-14T03:38:31.974Z,931.46
2017-01-14T03:38:59.670Z,931.47
2017-01-14T03:39:27.381Z,931.45
2017-01-14T03:39:55.079Z,931.47
2017-01-14T03:40:22.805Z,931.43
2017-01-14T03:40:50.488Z,931.43
2017-01-14T03:41:18.205Z,931.47
2017-01-14T03:41:45.909Z,931.44
2017-01-14T03:42:13.701Z,931.43
2017-01-14T03:42:41.415Z,931.42
2017-01-14T03:43:09.190Z,931.4
2017-01-14T03:43:36.914Z,931.4
2017-01-14T03:44:04.641Z,931.36
2017-01-14T03:44:32.353Z,931.38
2017-01-14T03:45:00.021Z,931.4
2017-01-14T03:45:27.730Z,931.38
2017-01-14T03:45:55.450Z,931.36
2017-01-14T03:46:23.151Z,931.35
2017-01-14T03:46:50.877Z,931.33
2017-01-14T03:47:18.623Z,931.28
2017-01-14T03:47:46.340Z,931.28
2017-01-14T03:48:14.122Z,931.28
2017-01-14T03:48:41.831Z,931.26
2017-01-14T03:49:09.514Z,931.22
2017-01-14T03:49:37.209Z,931.22
2017-01-14T03:50:04.900Z,931.24
2017-01-14T03:50:32.732Z,931.23
2017-01-14T03:51:00.465Z,931.22
2017-01-14T03:51:28.164Z,931.2
2017-01-14T03:51:55.869Z,931.23
2017-01-14T03:52:23.576Z,931.19
2017-01-14T03:52:51.378Z,931.2
2017-01-14T03:53:19.064Z,931.21
2017-01-14T03:53:46.765Z,931.19
2017-01-14T03:54:14.491Z,931.18
2017-01-14T03:54:42.190Z,931.21
2017-01-14T03:55:09.911Z,931.17
2017-01-14T03:55:37.715Z,931.18
2017-01-14T03:56:05.412Z,931.23
2017-01-14T03:56:33.117Z,931.21
2017-01-14T03:57:00.810Z,931.19
2017-01-14T03:57:28.516Z,931.23
2017-01-14T03:57:56.219Z,931.22
2017-01-14T03:58:23.918Z,931.25
2017-01-14T03:58:51.649Z,931.24
2017-01-14T03:59:19.358Z,931.22
2017-01-14T03:59:47.088Z,931.22
2017-01-14T04:00:14.900Z,931.19
2017-01-14T04:00:42.628Z,931.2
2017-01-14T04:01:10.420Z,931.2
2017-01-14T04:01:38.138Z,931.21
2017-01-14T04:02:05.818Z,931.17
2017-01-14T04:02:33.583Z,931.17
2017-01-14T04:03:01.288Z,931.15
2017-01-14T04:03:29.017Z,931.13
2017-01-14T04:03:56.739Z,931.14
2017-01-14T04:04:24.438Z,931.12
2017-01-14T04:04:52.176Z,931.14
2017-01-14T04:05:19.867Z,931.07
2017-01-14T04:05:47.589Z,931.09
2017-01-14T04:06:15.382Z,931.08
2017-01-14T04:06:43.082Z,931.04
2017-01-14T04:07:10.881Z,931.06
2017-01-14T04:07:38.694Z,931.09
2017-01-14T04:08:06.748Z,931.08
2017-01-14T04:08:34.428Z,931.08
2017-01-14T04:09:02.127Z,931.08
2017-01-14T04:09:29.804Z,931.04
2017-01-14T04:09:57.533Z,931.04
2017-01-14T04:10:25.223Z,931.07
2017-01-14T04:10:52.932Z,931.06
2017-01-14T04:11:20.640Z,931.07
2017-01-14T04:11:48.333Z,931.03
2017-01-14T04:12:16.073Z,931.03
2017-01-14T04:12:43.779Z,931.05
2017-01-14T04:13:11.506Z,931.06
2017-01-14T04:13:39.187Z,931.01
2017-01-14T04:14:06.987Z,931.05
2017-01-14T04:14:34.788Z,931.04
2017-01-14T04:15:02.500Z,931.04
2017-01-14T04:15:30.282Z,931.09
2017-01-14T04:15:57.981Z,931.02
2017-01-14T04:16:25.692Z,931.05
2017-01-14T04:16:53.417Z,931.03
2017-01-14T04:17:21.513Z,931
2017-01-14T04:17:49.300Z,931.02
2017-01-14T04:18:17.015Z,930.97
2017-01-14T04:18:44.813Z,930.94
2017-01-14T04:19:12.561Z,930.96
2017-01-14T04:19:40.272Z,930.94
2017-01-14T04:20:07.963Z,930.91
2017-01-14T04:20:35.661Z,930.9
2017-01-14T04:21:03.375Z,930.88
2017-01-14T04:21:31.097Z,930.86
2017-01-14T04:21:58.848Z,930.86
2017-01-14T04:22:26.532Z,930.79
2017-01-14T04:22:54.257Z,930.84
2017-01-14T04:23:21.935Z,930.81
2017-01-14T04:23:49.639Z,930.79
2017-01-14T04:24:17.334Z,930.8
2017-01-14T04:24:45.053Z,930.78
2017-01-14T04:25:12.772Z,930.77
2017-01-14T04:25:40.500Z,930.79
2017-01-14T04:26:08.186Z,930.76
2017-01-14T04:26:35.871Z,930.74
2017-01-14T04:27:03.593Z,930.74
2017-01-14T04:27:31.304Z,930.76
2017-01-14T04:27:59.016Z,930.68
2017-01-14T04:28:26.701Z,930.71
2017-01-14T04:28:54.411Z,930.7
2017-01-14T04:29:22.122Z,930.66
2017-01-14T04:29:49.822Z,930.67
2017-01-14T04:30:17.524Z,930.65
2017-01-14T04:30:45.265Z,930.62
2017-01-14T04:31:12.949Z,930.6
2017-01-14T04:31:40.648Z,930.6
2017-01-14T04:32:08.366Z,930.59
2017-01-14T04:32:36.070Z,930.58
2017-01-14T04:33:03.791Z,930.55
2017-01-14T04:33:31.514Z,930.58
2017-01-14T04:33:59.211Z,930.53
2017-01-14T04:34:26.943Z,930.57
2017-01-14T04:34:54.648Z,930.55
2017-01-14T04:35:22.355Z,930.56
2017-01-14T04:35:50.061Z,930.55
2017-01-14T04:36:17.758Z,930.54
2017-01-14T04:36:45.435Z,930.57
2017-01-14T04:37:13.320Z,930.59
2017-01-14T04:37:41.003Z,930.59
2017-01-14T04:38:08.814Z,930.58
2017-01-14T04:38:36.487Z,930.58
2017-01-14T04:39:04.192Z,930.56
2017-01-14T04:39:31.904Z,930.56
2017-01-14T04:39:59.656Z,930.58
2017-01-14T04:40:27.332Z,930.55
2017-01-14T04:40:55.053Z,930.58
2017-01-14T04:41:22.772Z,930.57
2017-01-14T04:41:50.594Z,930.59
2017-01-14T04:42:18.290Z,930.59
2017-01-14T04:42:46.014Z,930.6
2017-01-14T04:43:13.739Z,930.56
2017-01-14T04:43:41.425Z,930.6
2017-01-14T04:44:09.151Z,930.57
2017-01-14T04:44:36.802Z,930.56
2017-01-14T04:45:04.498Z,930.57
2017-01-14T04:45:32.285Z,930.54
2017-01-14T04:46:00.075Z,930.54
2017-01-14T04:46:27.771Z,930.55
2017-01-14T04:46:55.587Z,930.52
2017-01-14T04:47:23.294Z,930.54
2017-01-14T04:47:50.973Z,930.51
2017-01-14T04:48:18.655Z,930.54
2017-01-14T04:48:46.459Z,930.52
2017-01-14T04:49:14.218Z,930.51
2017-01-14T04:49:42.020Z,930.5
2017-01-14T04:50:09.743Z,930.52
2017-01-14T04:50:37.473Z,930.53
2017-01-14T04:51:05.185Z,930.49
2017-01-14T04:51:32.853Z,930.51
2017-01-14T04:52:00.576Z,930.5
2017-01-14T04:52:28.324Z,930.5
2017-01-14T04:52:56.035Z,930.51
2017-01-14T04:53:23.707Z,930.48
2017-01-14T04:53:51.399Z,930.45
2017-01-14T04:54:19.104Z,930.43
2017-01-14T04:54:46.807Z,930.43
2017-01-14T04:55:14.498Z,930.43
2017-01-14T04:55:42.281Z,930.4
2017-01-14T04:56:09.979Z,930.35
2017-01-14T04:56:37.682Z,930.36
2017-01-14T04:57:05.497Z,930.37
2017-01-14T04:57:33.192Z,930.31
2017-01-14T04:58:00.897Z,930.29
2017-01-14T04:58:28.588Z,930.26
2017-01-14T04:58:56.282Z,930.26
2017-01-14T04:59:24.005Z,930.22
2017-01-14T04:59:51.797Z,930.16
2017-01-14T05:00:19.513Z,930.18
2017-01-14T05:00:47.231Z,930.17
2017-01-14T05:01:14.923Z,930.15
2017-01-14T05:01:42.636Z,930.13
2017-01-14T05:02:10.322Z,930.14
2017-01-14T05:02:38.111Z,930.13
2017-01-14T05:03:05.816Z,930.13
2017-01-14T05:03:33.515Z,930.1
2017-01-14T05:04:01.320Z,930.14
2017-01-14T05:04:29.005Z,930.1
2017-01-14T05:04:56.700Z,930.1
2017-01-14T05:05:24.376Z,930.09
2017-01-14T05:05:52.064Z,930.04
2017-01-14T05:06:19.773Z,930.07
2017-01-14T05:06:47.465Z,930.06
2017-01-14T05:07:15.155Z,930.01
2017-01-14T05:07:42.890Z,930.05
2017-01-14T05:08:10.634Z,930.05
2017-01-14T05:08:38.317Z,930.02
2017-01-14T05:09:06.029Z,930.03
2017-01-14T05:09:33.716Z,930.04
2017-01-14T05:10:01.397Z,930.01
2017-01-14T05:10:29.103Z,929.98
2017-01-14T05:10:56.816Z,930.01
2017-01-14T05:11:24.524Z,930.02
2017-01-14T05:11:52.244Z,929.95
2017-01-14T05:12:19.935Z,929.94
2017-01-14T05:12:47.640Z,929.96
2017-01-14T05:13:15.345Z,929.95
2017-01-14T05:13:43.037Z,929.94
2017-01-14T05:14:10.724Z,929.95
2017-01-14T05:14:38.413Z,929.91
2017-01-14T05:15:06.110Z,929.9
2017-01-14T05:15:33.794Z,929.94
2017-01-14T05:16:01.497Z,929.89
2017-01-14T05:16:29.209Z,929.93
2017-01-14T05:16:56.891Z,929.94
2017-01-14T05:17:24.571Z,929.96
2017-01-14T05:17:52.254Z,929.96
2017-01-14T05:18:19.959Z,929.95
2017-01-14T05:18:47.783Z,929.96
2017-01-14T05:19:15.555Z,929.99
2017-01-14T05:19:43.225Z,930.01
2017-01-14T05:20:10.907Z,929.99
2017-01-14T05:20:38.592Z,929.98
2017-01-14T05:21:06.305Z,930.02
2017-01-14T05:21:34.014Z,930.03
2017-01-14T05:22:01.680Z,929.98
2017-01-14T05:22:29.361Z,929.97
2017-01-14T05:22:57.175Z,929.95
2017-01-14T05:23:24.877Z,929.96
2017-01-14T05:23:52.559Z,929.98
2017-01-14T05:24:20.279Z,929.91
2017-01-14T05:24:47.991Z,929.95
2017-01-14T05:25:15.708Z,929.92
2017-01-14T05:25:43.405Z,929.95
2017-01-14T05:26:11.099Z,929.9
2017-01-14T05:26:38.790Z,929.87
2017-01-14T05:27:06.496Z,929.87
2017-01-14T05:27:34.167Z,929.85
2017-01-14T05:28:01.877Z,929.86
2017-01-14T05:28:29.678Z,929.83
2017-01-14T05:28:57.466Z,929.81
2017-01-14T05:29:25.157Z,929.85
2017-01-14T05:29:52.855Z,929.79
2017-01-14T05:30:20.566Z,929.8
2017-01-14T05:30:48.262Z,929.8
2017-01-14T05:31:15.980Z,929.79
2017-01-14T05:31:43.708Z,929.78
2017-01-14T05:32:11.393Z,929.78
2017-01-14T05:32:39.082Z,929.8
2017-01-14T05:33:06.807Z,929.81
2017-01-14T05:33:34.523Z,929.8
2017-01-14T05:34:02.207Z,929.8
2017-01-14T05:34:29.935Z,929.78
2017-01-14T05:34:57.726Z,929.79
2017-01-14T05:35:25.454Z,929.77
2017-01-14T05:35:53.148Z,929.78
2017-01-14T05:36:20.886Z,929.79
2017-01-14T05:36:48.747Z,929.75
2017-01-14T05:37:16.682Z,929.78
2017-01-14T05:37:44.453Z,929.74
2017-01-14T05:38:12.130Z,929.69
2017-01-14T05:38:39.829Z,929.73
2017-01-14T05:39:07.526Z,929.74
2017-01-14T05:39:35.235Z,929.7
2017-01-14T05:40:02.915Z,929.67
2017-01-14T05:40:30.613Z,929.65
2017-01-14T05:40:58.332Z,929.67
2017-01-14T05:41:26.080Z,929.67
2017-01-14T05:41:53.745Z,929.67
2017-01-14T05:42:21.543Z,929.65
2017-01-14T05:42:49.339Z,929.67
2017-01-14T05:43:17.046Z,929.65
2017-01-14T05:43:44.746Z,929.66
2017-01-14T05:44:12.468Z,929.62
2017-01-14T05:44:40.157Z,929.65
2017-01-14T05:45:07.862Z,929.66
2017-01-14T05:45:35.796Z,929.65
2017-01-14T05:46:03.521Z,929.62
2017-01-14T05:46:31.197Z,929.62
2017-01-14T05:46:59.012Z,929.65
2017-01-14T05:47:26.704Z,929.64